sensor_id;sensor_type;location;lat;lon;timestamp;temperature;humidity
6186;DHT22;3126;52.738;8.316;2024-01-30T00:04:02;3.70;99.90
6186;DHT22;3126;52.738;8.316;2024-01-30T00:09:03;3.80;99.90
6186;DHT22;3126;52.738;8.316;2024-01-30T00:14:04;3.80;99.90
6186;DHT22;3126;52.738;8.316;2024-01-30T00:19:04;3.80;99.90
6186;DHT22;3126;52.738;8.316;2024-01-30T00:24:05;3.90;99.90
6186;DHT22;3126;52.738;8.316;2024-01-30T00:29:06;3.90;99.90
6186;DHT22;3126;52.738;8.316;2024-01-30T00:34:06;3.90;99.90
6186;DHT22;3126;52.738;8.316;2024-01-30T00:39:07;3.90;99.90
6186;DHT22;3126;52.738;8.316;2024-01-30T00:49:10;4.00;99.90
6186;DHT22;3126;52.738;8.316;2024-01-30T00:54:11;4.10;99.90
6186;DHT22;3126;52.738;8.316;2024-01-30T00:59:12;4.20;99.90
6186;DHT22;3126;52.738;8.316;2024-01-30T01:04:12;4.20;99.90
6186;DHT22;3126;52.738;8.316;2024-01-30T01:09:13;4.20;99.90
6186;DHT22;3126;52.738;8.316;2024-01-30T01:14:14;4.20;99.90
6186;DHT22;3126;52.738;8.316;2024-01-30T01:19:14;4.20;99.90
6186;DHT22;3126;52.738;8.316;2024-01-30T01:24:15;4.20;99.90
6186;DHT22;3126;52.738;8.316;2024-01-30T01:29:15;4.20;99.90
6186;DHT22;3126;52.738;8.316;2024-01-30T01:34:16;4.20;99.90
6186;DHT22;3126;52.738;8.316;2024-01-30T01:39:17;4.20;99.90
6186;DHT22;3126;52.738;8.316;2024-01-30T01:44:18;4.20;99.90
6186;DHT22;3126;52.738;8.316;2024-01-30T01:49:20;4.30;99.90
6186;DHT22;3126;52.738;8.316;2024-01-30T01:54:21;4.30;99.90
6186;DHT22;3126;52.738;8.316;2024-01-30T01:59:24;4.40;99.90
6186;DHT22;3126;52.738;8.316;2024-01-30T02:04:25;4.40;99.90
6186;DHT22;3126;52.738;8.316;2024-01-30T02:09:25;4.40;99.90
6186;DHT22;3126;52.738;8.316;2024-01-30T02:29:29;4.50;99.90
6186;DHT22;3126;52.738;8.316;2024-01-30T02:34:29;4.60;99.90
6186;DHT22;3126;52.738;8.316;2024-01-30T02:39:30;4.60;99.90
6186;DHT22;3126;52.738;8.316;2024-01-30T02:44:30;4.60;99.90
6186;DHT22;3126;52.738;8.316;2024-01-30T02:49:31;4.60;99.90
6186;DHT22;3126;52.738;8.316;2024-01-30T02:54:32;4.70;99.90
6186;DHT22;3126;52.738;8.316;2024-01-30T02:59:32;4.80;99.90
6186;DHT22;3126;52.738;8.316;2024-01-30T03:04:36;4.90;99.90
6186;DHT22;3126;52.738;8.316;2024-01-30T03:09:36;5.00;99.90
6186;DHT22;3126;52.738;8.316;2024-01-30T03:19:38;5.40;99.90
6186;DHT22;3126;52.738;8.316;2024-01-30T03:44:42;5.10;99.90
6186;DHT22;3126;52.738;8.316;2024-01-30T03:49:43;5.20;99.90
6186;DHT22;3126;52.738;8.316;2024-01-30T03:54:44;5.30;99.90
6186;DHT22;3126;52.738;8.316;2024-01-30T03:59:44;5.30;99.90
6186;DHT22;3126;52.738;8.316;2024-01-30T04:04:45;5.30;99.90
6186;DHT22;3126;52.738;8.316;2024-01-30T04:09:45;5.30;99.90
6186;DHT22;3126;52.738;8.316;2024-01-30T04:14:46;5.30;99.90
6186;DHT22;3126;52.738;8.316;2024-01-30T04:19:47;5.20;99.90
6186;DHT22;3126;52.738;8.316;2024-01-30T04:24:48;5.20;99.90
6186;DHT22;3126;52.738;8.316;2024-01-30T04:29:48;5.20;99.90
6186;DHT22;3126;52.738;8.316;2024-01-30T04:34:49;5.10;99.90
6186;DHT22;3126;52.738;8.316;2024-01-30T04:39:49;5.10;99.90
6186;DHT22;3126;52.738;8.316;2024-01-30T04:44:50;5.00;99.90
6186;DHT22;3126;52.738;8.316;2024-01-30T04:49:51;5.10;99.90
6186;DHT22;3126;52.738;8.316;2024-01-30T04:54:52;5.00;99.90
6186;DHT22;3126;52.738;8.316;2024-01-30T04:59:53;5.00;99.90
6186;DHT22;3126;52.738;8.316;2024-01-30T05:04:53;5.00;99.90
6186;DHT22;3126;52.738;8.316;2024-01-30T05:09:54;5.00;99.90
6186;DHT22;3126;52.738;8.316;2024-01-30T05:14:55;5.00;99.90
6186;DHT22;3126;52.738;8.316;2024-01-30T05:19:55;5.00;99.90
6186;DHT22;3126;52.738;8.316;2024-01-30T05:24:56;5.00;99.90
6186;DHT22;3126;52.738;8.316;2024-01-30T05:29:56;5.00;99.90
6186;DHT22;3126;52.738;8.316;2024-01-30T05:34:57;4.90;99.90
6186;DHT22;3126;52.738;8.316;2024-01-30T05:39:58;4.90;99.90
6186;DHT22;3126;52.738;8.316;2024-01-30T05:44:58;4.90;99.90
6186;DHT22;3126;52.738;8.316;2024-01-30T05:49:59;4.90;99.90
6186;DHT22;3126;52.738;8.316;2024-01-30T05:54:59;4.90;99.90
6186;DHT22;3126;52.738;8.316;2024-01-30T06:00:00;4.90;99.90
6186;DHT22;3126;52.738;8.316;2024-01-30T06:05:00;5.00;99.90
6186;DHT22;3126;52.738;8.316;2024-01-30T06:10:01;5.00;99.90
6186;DHT22;3126;52.738;8.316;2024-01-30T06:15:02;5.00;99.90
6186;DHT22;3126;52.738;8.316;2024-01-30T06:20:03;5.10;99.90
6186;DHT22;3126;52.738;8.316;2024-01-30T06:25:04;5.10;99.90
6186;DHT22;3126;52.738;8.316;2024-01-30T06:30:05;5.10;99.90
6186;DHT22;3126;52.738;8.316;2024-01-30T06:35:06;5.20;99.90
6186;DHT22;3126;52.738;8.316;2024-01-30T06:40:07;5.20;99.90
6186;DHT22;3126;52.738;8.316;2024-01-30T06:45:09;5.20;99.90
6186;DHT22;3126;52.738;8.316;2024-01-30T06:50:09;5.30;99.90
6186;DHT22;3126;52.738;8.316;2024-01-30T06:55:10;5.30;99.90
6186;DHT22;3126;52.738;8.316;2024-01-30T07:00:11;5.40;99.90
6186;DHT22;3126;52.738;8.316;2024-01-30T07:05:12;5.40;99.90
6186;DHT22;3126;52.738;8.316;2024-01-30T07:10:13;5.40;99.90
6186;DHT22;3126;52.738;8.316;2024-01-30T07:15:14;5.40;99.90
6186;DHT22;3126;52.738;8.316;2024-01-30T07:20:20;5.40;99.90
6186;DHT22;3126;52.738;8.316;2024-01-30T07:25:20;5.40;99.90
6186;DHT22;3126;52.738;8.316;2024-01-30T07:30:22;5.50;99.90
6186;DHT22;3126;52.738;8.316;2024-01-30T07:35:23;5.50;99.90
6186;DHT22;3126;52.738;8.316;2024-01-30T07:40:24;5.50;99.90
6186;DHT22;3126;52.738;8.316;2024-01-30T07:45:25;5.60;99.90
6186;DHT22;3126;52.738;8.316;2024-01-30T07:50:27;5.70;99.90
6186;DHT22;3126;52.738;8.316;2024-01-30T07:55:27;5.70;99.90
6186;DHT22;3126;52.738;8.316;2024-01-30T08:00:29;5.80;99.90
6186;DHT22;3126;52.738;8.316;2024-01-30T08:05:29;6.30;99.90
6186;DHT22;3126;52.738;8.316;2024-01-30T08:10:30;5.90;99.90
6186;DHT22;3126;52.738;8.316;2024-01-30T08:15:31;6.00;99.90
6186;DHT22;3126;52.738;8.316;2024-01-30T08:20:31;6.00;99.90
6186;DHT22;3126;52.738;8.316;2024-01-30T08:25:32;6.20;99.90
6186;DHT22;3126;52.738;8.316;2024-01-30T08:30:32;6.30;99.90
6186;DHT22;3126;52.738;8.316;2024-01-30T08:35:33;6.40;99.90
6186;DHT22;3126;52.738;8.316;2024-01-30T09:40:53;6.80;99.90
6186;DHT22;3126;52.738;8.316;2024-01-30T10:16:04;8.70;99.90
6186;DHT22;3126;52.738;8.316;2024-01-30T10:41:15;9.40;99.90
6186;DHT22;3126;52.738;8.316;2024-01-30T11:41:38;10.30;99.90
6186;DHT22;3126;52.738;8.316;2024-01-30T11:46:40;11.00;99.90
6186;DHT22;3126;52.738;8.316;2024-01-30T11:51:40;11.00;99.90
6186;DHT22;3126;52.738;8.316;2024-01-30T11:56:42;11.10;99.90
6186;DHT22;3126;52.738;8.316;2024-01-30T12:01:43;11.10;99.90
6186;DHT22;3126;52.738;8.316;2024-01-30T12:06:44;11.10;99.90
6186;DHT22;3126;52.738;8.316;2024-01-30T12:11:48;11.10;99.90
6186;DHT22;3126;52.738;8.316;2024-01-30T12:16:50;11.00;99.90
6186;DHT22;3126;52.738;8.316;2024-01-30T12:21:57;11.10;99.90
6186;DHT22;3126;52.738;8.316;2024-01-30T12:26:59;11.00;99.90
6186;DHT22;3126;52.738;8.316;2024-01-30T12:32:00;11.10;99.90
6186;DHT22;3126;52.738;8.316;2024-01-30T12:37:01;11.10;99.90
6186;DHT22;3126;52.738;8.316;2024-01-30T12:42:01;11.20;99.90
6186;DHT22;3126;52.738;8.316;2024-01-30T12:47:03;11.20;99.90
6186;DHT22;3126;52.738;8.316;2024-01-30T12:52:04;11.20;99.90
6186;DHT22;3126;52.738;8.316;2024-01-30T12:57:05;11.20;99.90
6186;DHT22;3126;52.738;8.316;2024-01-30T13:02:07;11.10;99.90
6186;DHT22;3126;52.738;8.316;2024-01-30T13:07:07;11.10;99.90
6186;DHT22;3126;52.738;8.316;2024-01-30T13:12:08;11.20;99.90
6186;DHT22;3126;52.738;8.316;2024-01-30T13:17:09;11.10;99.90
6186;DHT22;3126;52.738;8.316;2024-01-30T13:22:09;11.10;99.90
6186;DHT22;3126;52.738;8.316;2024-01-30T13:27:10;11.10;99.90
6186;DHT22;3126;52.738;8.316;2024-01-30T13:32:10;11.00;99.90
6186;DHT22;3126;52.738;8.316;2024-01-30T13:37:11;11.00;99.90
6186;DHT22;3126;52.738;8.316;2024-01-30T13:42:11;11.00;99.90
6186;DHT22;3126;52.738;8.316;2024-01-30T13:47:12;11.10;99.90
6186;DHT22;3126;52.738;8.316;2024-01-30T13:52:13;11.10;99.90
6186;DHT22;3126;52.738;8.316;2024-01-30T14:32:23;11.20;99.90
6186;DHT22;3126;52.738;8.316;2024-01-30T14:37:23;11.50;99.90
6186;DHT22;3126;52.738;8.316;2024-01-30T14:42:24;11.40;99.90
6186;DHT22;3126;52.738;8.316;2024-01-30T14:47:25;11.30;99.90
6186;DHT22;3126;52.738;8.316;2024-01-30T14:52:28;11.30;99.90
6186;DHT22;3126;52.738;8.316;2024-01-30T14:57:29;11.20;99.90
6186;DHT22;3126;52.738;8.316;2024-01-30T15:02:29;11.20;99.90
6186;DHT22;3126;52.738;8.316;2024-01-30T15:07:30;11.20;99.90
6186;DHT22;3126;52.738;8.316;2024-01-30T15:12:30;11.20;99.90
6186;DHT22;3126;52.738;8.316;2024-01-30T15:17:31;11.20;99.90
6186;DHT22;3126;52.738;8.316;2024-01-30T15:22:32;11.20;99.90
6186;DHT22;3126;52.738;8.316;2024-01-30T15:27:32;11.20;99.90
6186;DHT22;3126;52.738;8.316;2024-01-30T15:32:33;11.20;99.90
6186;DHT22;3126;52.738;8.316;2024-01-30T15:37:33;11.10;99.90
6186;DHT22;3126;52.738;8.316;2024-01-30T15:42:34;11.10;99.90
6186;DHT22;3126;52.738;8.316;2024-01-30T15:47:35;11.00;99.90
6186;DHT22;3126;52.738;8.316;2024-01-30T15:52:37;11.00;99.90
6186;DHT22;3126;52.738;8.316;2024-01-30T15:57:38;11.00;99.90
6186;DHT22;3126;52.738;8.316;2024-01-30T16:02:39;10.90;99.90
6186;DHT22;3126;52.738;8.316;2024-01-30T16:07:40;10.90;99.90
6186;DHT22;3126;52.738;8.316;2024-01-30T16:12:41;10.80;99.90
6186;DHT22;3126;52.738;8.316;2024-01-30T16:17:45;10.80;99.90
6186;DHT22;3126;52.738;8.316;2024-01-30T16:22:46;10.80;99.90
6186;DHT22;3126;52.738;8.316;2024-01-30T16:27:46;10.70;99.90
6186;DHT22;3126;52.738;8.316;2024-01-30T16:32:47;10.60;99.90
6186;DHT22;3126;52.738;8.316;2024-01-30T16:37:47;10.50;99.10
6186;DHT22;3126;52.738;8.316;2024-01-30T16:42:48;10.30;99.10
6186;DHT22;3126;52.738;8.316;2024-01-30T16:47:49;10.10;99.40
6186;DHT22;3126;52.738;8.316;2024-01-30T18:03:08;9.90;99.20
6186;DHT22;3126;52.738;8.316;2024-01-30T18:08:08;9.20;99.90
6186;DHT22;3126;52.738;8.316;2024-01-30T18:58:23;9.00;99.90
6186;DHT22;3126;52.738;8.316;2024-01-30T20:08:41;8.00;99.90
6186;DHT22;3126;52.738;8.316;2024-01-30T20:13:42;7.60;99.90
6186;DHT22;3126;52.738;8.316;2024-01-30T20:18:42;7.50;99.90
6186;DHT22;3126;52.738;8.316;2024-01-30T20:23:43;7.50;99.90
6186;DHT22;3126;52.738;8.316;2024-01-30T20:38:45;7.40;99.90
6186;DHT22;3126;52.738;8.316;2024-01-30T20:43:46;7.30;99.90
6186;DHT22;3126;52.738;8.316;2024-01-30T21:08:51;7.10;99.90
6186;DHT22;3126;52.738;8.316;2024-01-30T21:13:52;6.90;99.90
6186;DHT22;3126;52.738;8.316;2024-01-30T21:28:54;6.90;99.90
6186;DHT22;3126;52.738;8.316;2024-01-30T21:33:55;6.70;99.90
6186;DHT22;3126;52.738;8.316;2024-01-30T21:43:56;6.70;99.90
6186;DHT22;3126;52.738;8.316;2024-01-30T21:48:57;6.50;99.90
6186;DHT22;3126;52.738;8.316;2024-01-30T21:53:58;6.40;99.90
6186;DHT22;3126;52.738;8.316;2024-01-30T21:58:58;6.40;99.90
6186;DHT22;3126;52.738;8.316;2024-01-30T22:03:59;6.30;99.90
6186;DHT22;3126;52.738;8.316;2024-01-30T22:09:00;6.30;99.90
6186;DHT22;3126;52.738;8.316;2024-01-30T22:14:00;6.30;99.90
6186;DHT22;3126;52.738;8.316;2024-01-30T22:19:01;6.30;99.90
6186;DHT22;3126;52.738;8.316;2024-01-30T22:24:02;6.30;99.90
6186;DHT22;3126;52.738;8.316;2024-01-30T22:29:02;6.30;99.90
6186;DHT22;3126;52.738;8.316;2024-01-30T22:44:05;6.20;99.90
6186;DHT22;3126;52.738;8.316;2024-01-30T22:49:05;6.10;99.90
6186;DHT22;3126;52.738;8.316;2024-01-30T22:59:07;6.10;99.90
6186;DHT22;3126;52.738;8.316;2024-01-30T23:04:07;6.00;99.90
6186;DHT22;3126;52.738;8.316;2024-01-30T23:09:08;6.00;99.90
6186;DHT22;3126;52.738;8.316;2024-01-30T23:14:09;6.00;99.90
6186;DHT22;3126;52.738;8.316;2024-01-30T23:19:10;5.90;99.90
6186;DHT22;3126;52.738;8.316;2024-01-30T23:24:11;5.90;99.90
6186;DHT22;3126;52.738;8.316;2024-01-30T23:29:12;5.90;99.90
6186;DHT22;3126;52.738;8.316;2024-01-30T23:34:12;5.90;99.90
6186;DHT22;3126;52.738;8.316;2024-01-30T23:39:13;5.90;99.90
6186;DHT22;3126;52.738;8.316;2024-01-30T23:44:13;5.90;99.90
6186;DHT22;3126;52.738;8.316;2024-01-30T23:54:16;5.80;99.90
6186;DHT22;3126;52.738;8.316;2024-01-30T23:59:16;5.80;99.90
